Time;durP1;ratioP1;P1;durP2;ratioP2;P2;SDS_P1;SDS_P2;PMS_P1;PMS_P2;Temp;Humidity;BMP_temperature;BMP_pressure;BME280_temperature;BME280_humidity;BME280_pressure;Samples;Min_cycle;Max_cycle;Signal;HPM_P1;HPM_P2
2021/12/16 00:02:03;;;;;;;17.70;8.10;;;7.60;99.90;;;;;;10387740;28;20084;-60
2021/12/16 00:34:30;;;;;;;18.55;7.28;;;7.50;99.90;;;;;;10382136;28;20081;-60
2021/12/16 00:39:35;;;;;;;15.45;6.97;;;7.60;99.90;;;;;;10386753;28;20072;-59
2021/12/16 00:49:46;;;;;;;14.65;7.03;;;7.60;99.90;;;;;;10373361;28;20626;-59
2021/12/16 00:54:54;;;;;;;19.17;7.50;;;7.60;99.90;;;;;;10368849;28;20057;-57
2021/12/16 00:59:58;;;;;;;16.30;6.97;;;7.60;99.90;;;;;;10387076;28;20075;-58
2021/12/16 01:05:21;;;;;;;17.08;7.72;;;7.50;99.90;;;;;;10386482;28;20075;-59
2021/12/16 01:48:39;;;;;;;15.55;8.05;;;7.40;99.90;;;;;;10382222;28;20108;-59
2021/12/16 01:58:26;;;;;;;16.60;8.10;;;7.30;99.90;;;;;;10361818;28;20088;-59
2021/12/16 02:03:41;;;;;;;23.83;9.15;;;7.40;99.90;;;;;;10373707;28;20057;-56
2021/12/16 02:08:43;;;;;;;36.50;10.95;;;7.30;99.90;;;;;;10384799;28;20053;-57
2021/12/16 02:40:33;;;;;;;19.88;9.40;;;7.20;99.90;;;;;;10390400;28;20102;-59
2021/12/16 02:51:01;;;;;;;16.63;6.88;;;7.20;99.90;;;;;;10386933;28;20085;-56
2021/12/16 02:56:04;;;;;;;19.20;7.95;;;7.30;99.90;;;;;;10392392;28;20119;-57
2021/12/16 03:01:25;;;;;;;17.75;7.25;;;7.30;99.90;;;;;;10389829;28;20119;-56
2021/12/16 03:06:30;;;;;;;16.88;7.57;;;7.20;99.90;;;;;;10393247;28;20052;-56
2021/12/16 03:22:02;;;;;;;16.70;7.93;;;7.10;99.90;;;;;;10387007;28;20142;-56
2021/12/16 03:37:32;;;;;;;17.88;7.88;;;7.10;99.90;;;;;;10389509;28;20045;-57
2021/12/16 03:42:50;;;;;;;17.58;7.20;;;7.20;99.90;;;;;;10389665;28;20045;-57
2021/12/16 03:47:51;;;;;;;17.20;8.50;;;7.20;99.90;;;;;;10387541;28;20076;-56
2021/12/16 03:52:53;;;;;;;16.58;7.65;;;7.20;99.90;;;;;;10392405;28;20856;-56
2021/12/16 03:57:55;;;;;;;19.65;8.25;;;7.10;99.90;;;;;;10389702;28;20045;-56
2021/12/16 04:02:58;;;;;;;38.40;11.27;;;7.20;99.90;;;;;;10387632;28;20136;-56
2021/12/16 04:08:00;;;;;;;60.05;15.38;;;7.20;99.90;;;;;;10388513;28;20042;-56
2021/12/16 04:13:07;;;;;;;22.60;9.40;;;7.20;99.90;;;;;;10396019;28;20077;-56
2021/12/16 04:18:09;;;;;;;;;;;7.20;99.90;;;;;;10389309;28;20081;-56
2021/12/16 04:23:13;;;;;;;14.95;6.97;;;7.20;99.90;;;;;;10387887;28;19929;-57
2021/12/16 04:28:24;;;;;;;18.70;8.40;;;7.10;99.90;;;;;;10391216;28;20049;-56
2021/12/16 04:33:26;;;;;;;15.82;7.75;;;7.10;99.90;;;;;;10389269;28;20076;-56
2021/12/16 04:38:27;;;;;;;14.25;8.10;;;7.10;99.90;;;;;;10385006;28;20069;-56
2021/12/16 04:43:38;;;;;;;16.48;7.72;;;7.10;99.90;;;;;;10388644;28;20131;-56
2021/12/16 04:48:42;;;;;;;17.02;8.23;;;7.10;99.90;;;;;;10392136;28;20111;-57
2021/12/16 04:53:44;;;;;;;16.65;6.90;;;7.10;99.90;;;;;;10386145;28;20468;-56
2021/12/16 04:58:50;;;;;;;20.15;8.30;;;7.00;99.90;;;;;;10391504;28;20119;-57
2021/12/16 05:03:53;;;;;;;19.23;8.10;;;7.10;99.90;;;;;;10383846;28;20065;-57
2021/12/16 05:08:55;;;;;;;16.20;7.88;;;7.10;99.90;;;;;;10388884;28;20049;-56
2021/12/16 05:13:58;;;;;;;18.13;7.72;;;7.20;99.90;;;;;;10389870;28;20041;-56
2021/12/16 05:19:00;;;;;;;16.33;7.55;;;7.10;99.90;;;;;;10390409;28;20042;-56
2021/12/16 05:29:24;;;;;;;16.15;8.05;;;7.20;99.90;;;;;;10368837;28;20049;-58
2021/12/16 05:34:25;;;;;;;15.27;6.95;;;7.20;99.90;;;;;;10386238;28;20122;-58
2021/12/16 05:39:27;;;;;;;14.55;6.85;;;7.00;99.90;;;;;;10385944;28;20331;-59
2021/12/16 05:44:29;;;;;;;15.80;6.70;;;7.00;99.90;;;;;;10388249;28;20095;-57
2021/12/16 05:49:30;;;;;;;17.58;7.25;;;7.00;99.90;;;;;;10388264;28;20569;-57
2021/12/16 05:54:32;;;;;;;19.20;7.70;;;7.00;99.90;;;;;;10371536;28;20095;-58
2021/12/16 05:59:34;;;;;;;19.25;8.32;;;7.10;99.90;;;;;;10366207;28;20053;-58
2021/12/16 06:04:36;;;;;;;16.35;8.27;;;7.00;99.90;;;;;;10368446;28;20091;-57
2021/12/16 06:09:37;;;;;;;20.23;8.27;;;7.00;99.90;;;;;;10384698;28;20099;-58
2021/12/16 06:14:50;;;;;;;16.13;7.38;;;7.10;99.90;;;;;;10382274;28;20539;-57
2021/12/16 06:30:44;;;;;;;17.33;7.47;;;7.10;99.90;;;;;;10382220;28;20496;-60
2021/12/16 06:35:47;;;;;;;19.70;7.97;;;7.00;99.90;;;;;;10380638;28;20484;-60
2021/12/16 06:40:49;;;;;;;17.05;7.05;;;7.10;99.90;;;;;;10383720;28;20053;-58
2021/12/16 06:45:53;;;;;;;17.88;7.63;;;7.00;99.90;;;;;;10384262;28;20103;-58
2021/12/16 06:51:00;;;;;;;14.25;7.30;;;7.10;99.90;;;;;;10382872;28;20117;-58
2021/12/16 06:56:11;;;;;;;17.52;7.50;;;7.00;99.90;;;;;;10389197;28;20455;-59
2021/12/16 07:01:31;;;;;;;14.82;7.13;;;7.00;99.90;;;;;;10382653;28;20065;-59
2021/12/16 07:06:34;;;;;;;17.63;7.53;;;6.90;99.90;;;;;;10388542;28;20134;-58
2021/12/16 07:11:41;;;;;;;17.17;7.85;;;7.00;99.90;;;;;;10381629;28;20049;-59
2021/12/16 07:16:45;;;;;;;17.63;7.65;;;7.00;99.90;;;;;;10389205;28;20050;-64
2021/12/16 07:21:47;;;;;;;18.60;8.05;;;6.90;99.90;;;;;;10384503;28;20089;-59
2021/12/16 07:26:49;;;;;;;17.17;7.15;;;7.00;99.90;;;;;;10390061;28;20057;-60
2021/12/16 07:31:51;;;;;;;20.02;9.52;;;7.00;99.90;;;;;;10391723;28;20148;-62
2021/12/16 07:36:53;;;;;;;17.55;8.95;;;7.00;99.90;;;;;;10388573;28;20073;-62
2021/12/16 07:41:56;;;;;;;20.30;8.50;;;6.90;99.90;;;;;;10392570;28;20546;-62
2021/12/16 07:47:09;;;;;;;;;;;6.90;99.90;;;;;;10390052;28;20048;-62
2021/12/16 07:52:16;;;;;;;17.67;7.65;;;6.80;99.90;;;;;;10388321;28;20004;-62
2021/12/16 07:57:19;;;;;;;22.73;8.40;;;6.80;99.90;;;;;;10391771;28;20053;-62
2021/12/16 08:02:21;;;;;;;33.95;10.88;;;6.70;99.90;;;;;;10388018;28;20038;-61
2021/12/16 08:07:22;;;;;;;22.20;8.15;;;6.70;99.90;;;;;;10388286;28;20076;-61
2021/12/16 08:12:24;;;;;;;20.50;7.80;;;6.80;99.90;;;;;;10388463;28;20049;-61
2021/12/16 08:17:26;;;;;;;17.73;8.65;;;6.80;99.90;;;;;;10385374;28;20069;-61
2021/12/16 08:22:28;;;;;;;20.67;8.93;;;6.80;99.90;;;;;;10388560;28;20546;-62
2021/12/16 08:27:30;;;;;;;22.50;9.25;;;6.90;99.90;;;;;;10386063;28;20126;-63
2021/12/16 08:32:31;;;;;;;18.42;8.85;;;6.90;99.90;;;;;;10389080;28;20138;-62
2021/12/16 08:37:33;;;;;;;20.98;9.13;;;7.00;99.90;;;;;;10387828;28;20116;-62
2021/12/16 08:42:38;;;;;;;16.27;8.20;;;7.00;99.90;;;;;;10387906;28;20047;-62
2021/12/16 08:47:40;;;;;;;22.50;8.85;;;7.10;99.90;;;;;;10390635;28;20081;-62
2021/12/16 08:52:43;;;;;;;18.02;8.25;;;7.10;99.90;;;;;;10389717;28;20089;-61
2021/12/16 08:57:44;;;;;;;23.60;8.88;;;7.10;99.90;;;;;;10390745;28;20069;-62
2021/12/16 09:02:46;;;;;;;19.83;9.27;;;7.10;99.90;;;;;;10387810;28;20546;-62
2021/12/16 09:07:48;;;;;;;18.70;8.30;;;7.10;99.90;;;;;;10385013;28;20065;-61
2021/12/16 09:13:02;;;;;;;17.80;8.13;;;7.10;99.90;;;;;;10381901;28;20048;-61
2021/12/16 09:18:05;;;;;;;15.00;7.47;;;7.20;99.90;;;;;;10390292;28;20049;-61
2021/12/16 09:23:09;;;;;;;24.90;9.18;;;7.30;99.90;;;;;;10371351;28;20056;-61
2021/12/16 09:28:11;;;;;;;18.02;7.53;;;7.40;99.90;;;;;;10387197;28;20065;-62
2021/12/16 09:33:16;;;;;;;16.83;9.05;;;7.70;99.90;;;;;;10384070;28;20145;-62
2021/12/16 09:38:19;;;;;;;16.48;8.55;;;8.00;99.90;;;;;;10388840;28;20120;-62
2021/12/16 09:43:30;;;;;;;24.52;8.68;;;8.10;99.90;;;;;;10388347;28;20049;-61
2021/12/16 09:48:33;;;;;;;16.42;8.60;;;8.10;99.90;;;;;;10383059;28;20579;-62
2021/12/16 09:53:38;;;;;;;19.50;9.73;;;8.40;99.90;;;;;;10386720;28;20557;-62
2021/12/16 09:58:42;;;;;;;18.23;8.55;;;8.40;99.90;;;;;;10386652;28;20699;-61
2021/12/16 10:03:47;;;;;;;19.15;8.35;;;8.60;99.90;;;;;;10386009;28;20072;-62
2021/12/16 10:08:49;;;;;;;17.85;9.13;;;8.60;99.90;;;;;;10383498;28;20140;-62
2021/12/16 10:14:48;;;;;;;22.33;9.15;;;8.70;99.90;;;;;;10384607;28;20483;-61
2021/12/16 10:19:19;;;;;;;22.75;9.48;;;8.80;99.90;;;;;;10374900;28;20152;-62
2021/12/16 10:24:26;;;;;;;21.63;9.90;;;8.90;99.90;;;;;;10385252;28;20048;-61
2021/12/16 10:29:42;;;;;;;22.52;9.65;;;8.80;99.90;;;;;;10381947;28;20099;-62
2021/12/16 10:34:57;;;;;;;15.95;7.47;;;8.70;99.90;;;;;;10384256;28;20111;-62
2021/12/16 10:40:46;;;;;;;18.63;8.77;;;8.70;99.90;;;;;;10381420;28;20052;-61
2021/12/16 10:45:53;;;;;;;15.13;8.27;;;8.50;99.90;;;;;;10358517;28;20543;-62
2021/12/16 10:51:03;;;;;;;19.17;9.15;;;8.50;99.90;;;;;;10384797;28;20712;-63
2021/12/16 10:56:05;;;;;;;23.02;10.48;;;8.60;99.90;;;;;;10386605;28;20492;-62
2021/12/16 11:01:26;;;;;;;19.60;10.20;;;8.60;99.90;;;;;;10391277;28;20099;-62
2021/12/16 11:06:32;;;;;;;23.10;10.35;;;8.60;99.90;;;;;;10391201;28;20045;-62
2021/12/16 11:11:33;;;;;;;18.77;8.98;;;8.60;99.90;;;;;;10395378;28;20116;-62
2021/12/16 11:16:36;;;;;;;25.38;10.55;;;8.70;99.90;;;;;;10392925;28;20057;-62
2021/12/16 11:21:40;;;;;;;17.90;9.45;;;8.60;99.90;;;;;;10391213;28;20077;-62
2021/12/16 11:26:43;;;;;;;20.38;9.55;;;8.70;99.90;;;;;;10393158;28;20081;-62
2021/12/16 11:31:49;;;;;;;18.23;8.32;;;8.90;99.90;;;;;;10392314;28;20111;-62
2021/12/16 11:36:53;;;;;;;19.17;9.00;;;8.80;99.90;;;;;;10391078;28;20045;-62
2021/12/16 11:42:02;;;;;;;24.00;10.52;;;8.90;99.90;;;;;;10390710;28;20470;-62
2021/12/16 11:47:22;;;;;;;20.88;9.43;;;9.00;99.90;;;;;;10391878;28;20049;-62
2021/12/16 11:52:28;;;;;;;20.88;9.75;;;9.10;99.90;;;;;;10390270;28;20545;-62
2021/12/16 11:57:33;;;;;;;16.70;8.45;;;9.10;99.90;;;;;;10391344;28;20505;-62
2021/12/16 12:02:37;;;;;;;24.00;8.57;;;9.00;99.90;;;;;;10394846;28;20073;-62
2021/12/16 12:07:41;;;;;;;18.45;9.40;;;9.00;99.90;;;;;;10394428;28;20091;-60
2021/12/16 12:12:46;;;;;;;20.05;10.15;;;9.00;99.90;;;;;;10389736;28;20073;-61
2021/12/16 12:17:53;;;;;;;18.75;9.02;;;9.00;99.90;;;;;;10390905;28;20802;-62
2021/12/16 12:22:55;;;;;;;19.58;9.95;;;9.10;99.90;;;;;;10392588;28;20045;-60
2021/12/16 12:27:57;;;;;;;19.13;8.73;;;9.10;99.90;;;;;;10397175;28;20461;-62
2021/12/16 12:32:59;;;;;;;19.10;8.75;;;9.10;99.90;;;;;;10387856;28;20049;-62
2021/12/16 12:38:01;;;;;;;19.10;9.52;;;9.20;99.90;;;;;;10397733;28;20073;-62
2021/12/16 12:43:05;;;;;;;20.25;8.98;;;9.20;99.90;;;;;;10389833;28;20080;-61
2021/12/16 12:48:12;;;;;;;19.05;9.43;;;9.40;99.90;;;;;;10389035;28;20076;-62
2021/12/16 12:53:24;;;;;;;17.35;8.88;;;9.50;99.90;;;;;;10389254;28;20119;-61
2021/12/16 12:58:33;;;;;;;18.73;9.07;;;9.80;99.90;;;;;;10419855;28;20079;-62
2021/12/16 13:03:39;;;;;;;17.58;8.77;;;9.90;99.90;;;;;;10421971;28;20590;-63
2021/12/16 13:08:45;;;;;;;22.48;8.98;;;9.90;99.90;;;;;;10405315;28;20138;-62
2021/12/16 13:14:08;;;;;;;21.17;9.70;;;9.70;99.90;;;;;;10427273;28;20064;-62
2021/12/16 13:25:11;;;;;;;30.50;10.60;;;10.00;99.90;;;;;;10384796;28;20057;-62
2021/12/16 13:40:30;;;;;;;19.23;9.00;;;9.70;99.90;;;;;;10401064;28;20069;-62
2021/12/16 13:45:43;;;;;;;19.42;9.70;;;9.70;99.90;;;;;;10396052;28;20033;-63
2021/12/16 14:08:00;;;;;;;24.67;10.05;;;9.90;99.90;;;;;;10421269;28;20084;-62
2021/12/16 14:24:23;;;;;;;18.27;9.40;;;9.90;99.90;;;;;;10424143;28;20049;-61
2021/12/16 14:34:57;;;;;;;18.58;9.13;;;9.90;99.90;;;;;;10426494;28;20114;-61
2021/12/16 14:40:36;;;;;;;20.80;8.90;;;9.90;99.90;;;;;;10409132;28;20099;-62
2021/12/16 14:45:43;;;;;;;17.92;8.10;;;9.90;99.90;;;;;;10420709;28;20092;-62
2021/12/16 14:50:56;;;;;;;20.08;9.02;;;9.90;99.90;;;;;;10432825;28;20060;-62
2021/12/16 15:01:48;;;;;;;31.05;12.65;;;9.80;99.90;;;;;;9356842;23;20141;-60
2021/12/16 15:06:59;;;;;;;20.45;8.90;;;9.80;99.90;;;;;;10334347;28;20070;-60
2021/12/16 15:12:38;;;;;;;16.83;8.25;;;9.60;99.90;;;;;;10342430;28;20108;-60
2021/12/16 15:39:26;;;;;;;23.05;10.45;;;9.00;99.90;;;;;;10336272;28;20046;-62
2021/12/16 15:44:22;;;;;;;25.45;10.65;;;8.90;99.90;;;;;;10343262;28;20108;-62
2021/12/16 15:49:24;;;;;;;24.00;10.48;;;8.80;99.90;;;;;;10338365;28;20890;-61
2021/12/16 15:54:29;;;;;;;21.40;11.45;;;8.70;99.90;;;;;;10340507;28;20144;-62
2021/12/16 15:59:33;;;;;;;22.08;10.90;;;8.70;99.90;;;;;;10339545;28;20050;-62
2021/12/16 16:04:37;;;;;;;29.15;11.32;;;8.60;99.90;;;;;;10344810;28;20097;-62
2021/12/16 16:09:50;;;;;;;23.40;10.75;;;8.60;99.90;;;;;;10343676;28;20100;-62
2021/12/16 16:14:55;;;;;;;28.75;12.55;;;8.60;99.90;;;;;;10341116;28;20069;-61
2021/12/16 16:19:57;;;;;;;24.63;11.70;;;8.60;99.90;;;;;;10337790;28;20132;-62
2021/12/16 16:25:04;;;;;;;30.83;11.70;;;8.70;99.90;;;;;;10347767;28;20038;-61
2021/12/16 16:30:07;;;;;;;25.92;11.60;;;8.70;99.90;;;;;;10322027;28;20076;-61
2021/12/16 16:35:15;;;;;;;23.10;11.40;;;8.70;99.90;;;;;;10343050;28;20169;-61
2021/12/16 16:40:16;;;;;;;;;;;8.70;99.90;;;;;;10338688;28;20070;-61
2021/12/16 16:45:21;;;;;;;25.10;12.00;;;8.70;99.90;;;;;;10342364;28;19929;-61
2021/12/16 16:50:24;;;;;;;31.02;13.13;;;8.60;99.90;;;;;;10340442;28;20666;-61
2021/12/16 16:55:34;;;;;;;30.33;13.18;;;8.50;99.90;;;;;;10344884;28;20503;-60
2021/12/16 17:00:46;;;;;;;37.08;15.57;;;8.60;99.90;;;;;;10334118;28;20412;-60
2021/12/16 17:05:57;;;;;;;31.27;14.23;;;8.60;99.90;;;;;;10340253;28;20054;-61
2021/12/16 17:11:07;;;;;;;24.02;11.80;;;8.70;99.90;;;;;;10335598;28;20555;-62
2021/12/16 17:21:27;;;;;;;28.67;14.57;;;8.70;99.90;;;;;;10334704;28;20484;-61
2021/12/16 17:26:44;;;;;;;27.10;13.00;;;8.70;99.90;;;;;;10339731;28;20069;-59
2021/12/16 17:31:57;;;;;;;25.65;12.30;;;8.70;99.90;;;;;;10336794;28;20081;-61
2021/12/16 17:37:25;;;;;;;26.05;11.82;;;8.70;99.90;;;;;;10337237;28;20121;-61
2021/12/16 17:42:35;;;;;;;22.73;11.27;;;8.60;99.90;;;;;;10329557;28;20137;-61
2021/12/16 17:47:41;;;;;;;27.48;13.02;;;8.60;99.90;;;;;;10334834;28;20050;-59
2021/12/16 17:52:49;;;;;;;25.92;12.13;;;8.60;99.90;;;;;;10341605;28;20060;-59
2021/12/16 17:57:59;;;;;;;23.80;10.98;;;8.60;99.90;;;;;;10329942;28;20050;-60
2021/12/16 18:03:04;;;;;;;23.17;11.70;;;8.50;99.90;;;;;;10336007;28;20062;-59
2021/12/16 18:08:06;;;;;;;32.25;14.27;;;8.50;99.90;;;;;;10342154;28;20056;-60
2021/12/16 18:13:08;;;;;;;25.17;11.93;;;8.50;99.90;;;;;;10334699;28;21203;-60
2021/12/16 18:18:13;;;;;;;28.92;12.60;;;8.50;99.90;;;;;;10316043;28;20041;-61
2021/12/16 18:23:22;;;;;;;27.02;12.45;;;8.50;99.90;;;;;;10338617;28;20455;-61
2021/12/16 18:28:29;;;;;;;37.95;14.52;;;8.50;99.90;;;;;;10316810;28;20069;-60
2021/12/16 18:33:35;;;;;;;24.75;12.23;;;8.50;99.90;;;;;;10334897;28;20070;-60
2021/12/16 18:39:00;;;;;;;22.30;11.87;;;8.60;99.90;;;;;;10332553;28;20046;-60
2021/12/16 18:44:04;;;;;;;25.45;12.10;;;8.50;99.90;;;;;;10328429;28;20050;-59
2021/12/16 18:49:17;;;;;;;25.70;11.90;;;8.50;99.90;;;;;;10331786;28;20464;-60
2021/12/16 18:54:29;;;;;;;23.40;11.65;;;8.60;99.90;;;;;;10325372;28;20089;-60
2021/12/16 18:59:32;;;;;;;22.13;10.70;;;8.60;99.90;;;;;;10328288;28;20069;-60
2021/12/16 19:04:39;;;;;;;26.58;11.57;;;8.60;99.90;;;;;;10328743;28;20647;-59
2021/12/16 19:09:43;;;;;;;25.37;11.30;;;8.60;99.90;;;;;;10329155;28;20413;-61
2021/12/16 19:14:48;;;;;;;22.83;11.38;;;8.60;99.90;;;;;;10334332;28;20139;-60
2021/12/16 19:19:53;;;;;;;22.70;11.82;;;8.60;99.90;;;;;;10331371;28;20054;-61
2021/12/16 19:24:56;;;;;;;30.38;11.30;;;8.50;99.90;;;;;;10334615;28;20050;-60
2021/12/16 19:29:59;;;;;;;27.95;11.85;;;8.50;99.90;;;;;;10338711;28;20136;-61
2021/12/16 19:35:04;;;;;;;29.65;12.15;;;8.50;99.90;;;;;;10336914;28;20086;-61
2021/12/16 19:40:14;;;;;;;31.85;13.45;;;8.60;99.90;;;;;;10336503;28;21081;-61
2021/12/16 19:45:16;;;;;;;23.83;11.43;;;8.60;99.90;;;;;;10338037;28;20133;-61
2021/12/16 19:50:22;;;;;;;26.80;11.77;;;8.50;99.90;;;;;;10338613;28;20084;-61
2021/12/16 19:55:24;;;;;;;26.58;12.77;;;8.60;99.90;;;;;;10341092;28;20042;-60
2021/12/16 20:00:30;;;;;;;31.10;13.10;;;8.50;99.90;;;;;;10334473;28;20496;-61
2021/12/16 20:05:32;;;;;;;25.67;11.93;;;8.50;99.90;;;;;;10338044;28;21627;-59
2021/12/16 20:10:39;;;;;;;29.27;12.55;;;8.50;99.90;;;;;;10340826;28;20795;-61
2021/12/16 20:15:52;;;;;;;23.65;12.18;;;8.50;99.90;;;;;;10299491;28;20578;-60
2021/12/16 20:20:59;;;;;;;31.17;13.43;;;8.50;99.90;;;;;;10326025;28;20128;-61
2021/12/16 20:26:08;;;;;;;30.35;13.27;;;8.60;99.90;;;;;;10342626;28;20045;-60
2021/12/16 20:31:20;;;;;;;26.95;13.20;;;8.50;99.90;;;;;;10340170;28;20096;-61
2021/12/16 20:36:32;;;;;;;31.30;14.27;;;8.50;99.90;;;;;;10342254;28;20049;-61
2021/12/16 20:41:40;;;;;;;29.75;13.20;;;8.50;99.90;;;;;;10326810;28;20460;-61
2021/12/16 20:46:51;;;;;;;33.97;13.65;;;8.50;99.90;;;;;;10342942;28;20357;-61
2021/12/16 20:52:05;;;;;;;37.40;16.17;;;8.50;99.90;;;;;;10340154;28;20133;-61
2021/12/16 20:57:10;;;;;;;44.67;17.67;;;8.50;99.90;;;;;;10324608;28;20077;-60
2021/12/16 21:02:20;;;;;;;27.52;12.15;;;8.50;99.90;;;;;;10337646;28;20046;-60
2021/12/16 21:07:26;;;;;;;27.38;12.48;;;8.50;99.90;;;;;;10341092;28;20037;-61
2021/12/16 21:12:28;;;;;;;22.67;11.88;;;8.40;99.90;;;;;;10340656;28;20061;-61
2021/12/16 21:17:31;;;;;;;25.65;12.23;;;8.40;99.90;;;;;;10338993;28;20042;-61
2021/12/16 21:22:34;;;;;;;25.40;12.10;;;8.40;99.90;;;;;;10337571;28;20137;-61
2021/12/16 21:27:36;;;;;;;27.27;12.55;;;8.40;99.90;;;;;;10340970;28;20492;-61
2021/12/16 21:32:37;;;;;;;27.50;12.32;;;8.40;99.90;;;;;;10335702;28;20073;-61
2021/12/16 21:37:40;;;;;;;26.92;11.90;;;8.40;99.90;;;;;;10341909;28;20129;-61
2021/12/16 21:42:43;;;;;;;24.30;11.45;;;8.30;99.90;;;;;;10333138;28;20104;-61
2021/12/16 21:47:47;;;;;;;30.17;13.05;;;8.30;99.90;;;;;;10322349;28;20058;-61
2021/12/16 21:52:50;;;;;;;28.23;12.63;;;8.30;99.90;;;;;;10322044;28;20104;-60
2021/12/16 21:57:54;;;;;;;29.05;13.73;;;8.30;99.90;;;;;;10320149;28;20717;-61
2021/12/16 22:02:58;;;;;;;25.40;12.68;;;8.30;99.90;;;;;;10338613;28;20061;-61
2021/12/16 22:08:01;;;;;;;25.50;13.45;;;8.30;99.90;;;;;;10335315;28;20134;-61
2021/12/16 22:13:04;;;;;;;23.60;12.50;;;8.30;99.90;;;;;;10339489;28;20118;-61
2021/12/16 22:18:08;;;;;;;29.48;13.23;;;8.30;99.90;;;;;;10336795;28;20074;-61
2021/12/16 22:23:15;;;;;;;31.08;13.65;;;8.30;99.90;;;;;;10336049;28;20180;-60
2021/12/16 22:28:18;;;;;;;32.33;12.85;;;8.20;99.90;;;;;;10332173;28;20574;-60
2021/12/16 22:33:22;;;;;;;29.98;13.15;;;8.20;99.90;;;;;;10333456;28;20050;-61
2021/12/16 22:38:26;;;;;;;25.95;13.43;;;8.10;99.90;;;;;;10336703;28;20108;-61
2021/12/16 22:43:28;;;;;;;31.67;12.93;;;8.10;99.90;;;;;;10337789;28;20168;-61
2021/12/16 22:48:33;;;;;;;27.33;12.95;;;8.10;99.90;;;;;;10336576;28;20050;-60
2021/12/16 22:53:35;;;;;;;29.30;12.57;;;8.10;99.90;;;;;;10334694;28;20069;-61
2021/12/16 22:58:37;;;;;;;28.63;13.55;;;8.10;99.90;;;;;;10343053;28;20076;-60
2021/12/16 23:03:40;;;;;;;29.00;13.65;;;8.10;99.90;;;;;;10342664;28;20113;-61
2021/12/16 23:08:45;;;;;;;31.27;13.40;;;8.00;99.90;;;;;;10339994;28;20050;-62
2021/12/16 23:13:50;;;;;;;29.83;13.00;;;8.00;99.90;;;;;;10346607;28;20077;-61
2021/12/16 23:24:03;;;;;;;29.05;13.18;;;8.00;99.90;;;;;;10345816;28;20128;-61
2021/12/16 23:29:05;;;;;;;30.55;12.70;;;8.00;99.90;;;;;;10330793;28;20074;-61
2021/12/16 23:34:07;;;;;;;30.60;13.07;;;8.00;99.90;;;;;;10340918;28;20476;-61
2021/12/16 23:39:10;;;;;;;28.42;12.68;;;8.00;99.90;;;;;;10342898;28;20076;-60
2021/12/16 23:54:43;;;;;;;28.40;12.30;;;8.00;99.90;;;;;;10341839;28;20065;-60
2021/12/16 23:59:46;;;;;;;29.38;13.43;;;8.00;99.90;;;;;;10345644;28;20052;-60
